createdAt,value
2022-08-01T00:00:46.515Z,7.47
2022-08-01T00:03:49.908Z,6.75
2022-08-01T00:06:53.249Z,6.80
2022-08-01T00:09:56.700Z,6.43
2022-08-01T00:13:00.022Z,6.68
2022-08-01T00:16:04.892Z,6.63
2022-08-01T00:19:08.257Z,6.30
2022-08-01T00:22:11.562Z,5.63
2022-08-01T00:25:14.888Z,6.25
2022-08-01T00:28:18.267Z,6.13
2022-08-01T00:31:22.991Z,6.18
2022-08-01T00:34:26.339Z,6.40
2022-08-01T00:37:29.749Z,5.95
2022-08-01T00:40:33.100Z,6.10
2022-08-01T00:43:36.415Z,6.28
2022-08-01T00:46:41.169Z,6.40
2022-08-01T00:49:44.540Z,5.93
2022-08-01T00:52:51.537Z,5.75
2022-08-01T00:55:56.085Z,6.35
2022-08-01T00:59:00.354Z,6.65
2022-08-01T01:02:05.433Z,6.15
2022-08-01T01:05:18.471Z,6.60
2022-08-01T01:08:29.252Z,6.65
2022-08-01T01:11:43.014Z,6.90
2022-08-01T01:14:53.330Z,6.20
2022-08-01T01:18:03.068Z,6.60
2022-08-01T01:21:17.824Z,6.18
2022-08-01T01:24:36.386Z,6.40
2022-08-01T01:27:52.033Z,5.85
2022-08-01T01:30:59.236Z,6.25
2022-08-01T01:34:05.280Z,6.38
2022-08-01T01:37:13.469Z,6.43
2022-08-01T01:40:18.740Z,6.07
2022-08-01T01:43:28.939Z,6.07
2022-08-01T01:46:38.957Z,6.00
2022-08-01T01:49:45.943Z,6.28
2022-08-01T01:52:51.420Z,5.40
2022-08-01T01:55:58.004Z,5.93
2022-08-01T01:59:04.879Z,6.15
2022-08-01T02:02:11.124Z,5.88
2022-08-01T02:05:15.868Z,5.82
2022-08-01T02:08:20.448Z,5.93
2022-08-01T02:11:24.999Z,6.50
2022-08-01T02:14:30.189Z,6.20
2022-08-01T02:17:39.959Z,5.85
2022-08-01T02:20:43.465Z,6.25
2022-08-01T02:23:46.829Z,5.80
2022-08-01T02:26:53.136Z,5.72
2022-08-01T02:30:01.068Z,5.82
2022-08-01T02:33:15.499Z,5.95
2022-08-01T02:36:29.177Z,5.88
2022-08-01T02:39:39.077Z,5.70
2022-08-01T02:42:47.467Z,5.28
2022-08-01T02:45:55.733Z,5.53
2022-08-01T02:49:03.323Z,5.28
2022-08-01T02:52:10.882Z,5.28
2022-08-01T02:55:16.080Z,5.10
2022-08-01T02:58:22.274Z,4.97
2022-08-01T03:01:36.250Z,4.78
2022-08-01T03:04:42.729Z,5.40
2022-08-01T03:07:48.643Z,5.20
2022-08-01T03:10:54.800Z,5.03
2022-08-01T03:14:01.232Z,4.90
2022-08-01T03:17:06.394Z,4.90
2022-08-01T03:20:16.558Z,4.82
2022-08-01T03:23:20.927Z,5.15
2022-08-01T03:26:31.532Z,4.53
2022-08-01T03:29:36.108Z,4.43
2022-08-01T03:32:39.779Z,4.88
2022-08-01T03:35:50.222Z,4.20
2022-08-01T03:38:58.695Z,4.40
2022-08-01T03:42:08.344Z,4.32
2022-08-01T03:45:18.113Z,4.20
2022-08-01T03:48:25.276Z,4.80
2022-08-01T03:51:32.140Z,4.30
2022-08-01T03:54:39.719Z,4.20
2022-08-01T03:57:44.935Z,3.95
2022-08-01T04:00:48.731Z,3.90
2022-08-01T04:03:52.352Z,4.20
2022-08-01T04:06:57.098Z,4.47
2022-08-01T04:10:00.783Z,4.22
2022-08-01T04:13:04.142Z,4.00
2022-08-01T04:16:07.729Z,4.13
2022-08-01T04:19:11.105Z,4.80
2022-08-01T04:22:16.844Z,4.70
2022-08-01T04:25:25.508Z,4.13
2022-08-01T04:28:30.145Z,4.05
2022-08-01T04:31:35.264Z,3.90
2022-08-01T04:34:41.764Z,4.07
2022-08-01T04:37:49.318Z,4.22
2022-08-01T04:40:54.725Z,4.50
2022-08-01T04:44:00.410Z,4.35
2022-08-01T04:47:06.197Z,4.40
2022-08-01T04:50:10.928Z,4.75
2022-08-01T04:53:22.976Z,4.28
2022-08-01T04:56:26.390Z,4.03
2022-08-01T04:59:42.347Z,4.03
2022-08-01T05:02:46.127Z,4.70
2022-08-01T05:05:49.476Z,4.50
2022-08-01T05:08:54.106Z,5.28
2022-08-01T05:11:59.327Z,4.28
2022-08-01T05:15:02.859Z,3.88
2022-08-01T05:18:08.770Z,3.30
2022-08-01T05:21:12.995Z,3.78
2022-08-01T05:24:17.894Z,3.30
2022-08-01T05:27:21.276Z,3.05
2022-08-01T05:30:24.966Z,3.30
2022-08-01T05:33:28.324Z,3.15
2022-08-01T05:36:31.687Z,2.85
2022-08-01T05:39:36.450Z,3.08
2022-08-01T05:42:39.744Z,2.88
2022-08-01T05:45:43.593Z,3.00
2022-08-01T05:48:46.875Z,3.38
2022-08-01T05:51:50.237Z,2.80
2022-08-01T05:54:54.968Z,2.85
2022-08-01T05:57:58.394Z,2.92
2022-08-01T06:01:01.821Z,2.90
2022-08-01T06:04:05.514Z,2.70
2022-08-01T06:07:08.905Z,3.10
2022-08-01T06:10:13.728Z,2.78
2022-08-01T06:13:17.056Z,2.50
2022-08-01T06:16:20.370Z,2.20
2022-08-01T06:19:23.767Z,2.55
2022-08-01T06:22:27.171Z,2.80
2022-08-01T06:25:32.893Z,2.53
2022-08-01T06:28:36.307Z,2.50
2022-08-01T06:31:39.609Z,2.38
2022-08-01T06:34:42.887Z,2.65
2022-08-01T06:37:47.970Z,3.20
2022-08-01T06:40:52.999Z,2.70
2022-08-01T06:43:56.381Z,2.40
2022-08-01T06:46:59.944Z,2.40
2022-08-01T06:50:03.563Z,2.60
2022-08-01T06:53:07.259Z,2.40
2022-08-01T06:56:12.053Z,2.75
2022-08-01T06:59:15.691Z,2.72
2022-08-01T07:02:19.097Z,2.15
2022-08-01T07:05:23.071Z,2.42
2022-08-01T07:08:26.369Z,3.03
2022-08-01T07:11:31.046Z,2.58
2022-08-01T07:14:34.407Z,2.20
2022-08-01T07:17:40.289Z,2.28
2022-08-01T07:20:51.863Z,2.35
2022-08-01T07:23:56.434Z,2.33
2022-08-01T07:27:21.254Z,2.70
2022-08-01T07:30:24.744Z,2.35
2022-08-01T07:33:27.984Z,2.22
2022-08-01T07:36:51.582Z,2.05
2022-08-01T07:39:54.900Z,2.08
2022-08-01T07:42:59.709Z,2.13
2022-08-01T07:46:03.088Z,2.38
2022-08-01T07:49:06.465Z,2.42
2022-08-01T07:52:10.287Z,2.10
2022-08-01T07:55:16.390Z,2.10
2022-08-01T07:58:21.702Z,2.22
2022-08-01T08:01:25.113Z,2.20
2022-08-01T08:04:29.293Z,2.17
2022-08-01T08:07:32.890Z,2.65
2022-08-01T08:10:36.937Z,2.92
2022-08-01T08:13:42.168Z,2.38
2022-08-01T08:16:45.681Z,2.58
2022-08-01T08:19:49.003Z,2.20
2022-08-01T08:22:52.328Z,2.03
2022-08-01T08:25:55.688Z,2.20
2022-08-01T08:29:00.337Z,1.92
2022-08-01T08:32:04.053Z,1.95
2022-08-01T08:35:08.592Z,2.30
2022-08-01T08:38:15.488Z,2.53
2022-08-01T08:41:21.354Z,2.10
2022-08-01T08:44:27.172Z,2.10
2022-08-01T08:47:33.631Z,2.53
2022-08-01T08:50:38.533Z,2.35
2022-08-01T08:53:44.973Z,2.53
2022-08-01T08:56:49.465Z,2.65
2022-08-01T08:59:55.307Z,3.00
2022-08-01T09:02:58.713Z,2.67
2022-08-01T09:06:02.198Z,2.25
2022-08-01T09:09:06.078Z,2.22
2022-08-01T09:12:09.796Z,1.90
2022-08-01T09:15:14.699Z,1.90
2022-08-01T09:18:35.015Z,1.98
2022-08-01T09:21:39.253Z,2.22
2022-08-01T09:24:43.764Z,2.03
2022-08-01T09:27:47.082Z,1.70
2022-08-01T09:30:51.944Z,1.98
2022-08-01T09:33:56.598Z,2.10
2022-08-01T09:37:04.237Z,2.20
2022-08-01T09:40:11.771Z,1.83
2022-08-01T09:43:15.809Z,1.75
2022-08-01T09:46:20.688Z,1.50
2022-08-01T09:49:50.830Z,1.63
2022-08-01T09:52:57.169Z,2.10
2022-08-01T09:56:12.100Z,1.55
2022-08-01T09:59:16.870Z,2.08
2022-08-01T10:02:32.767Z,1.80
2022-08-01T10:05:38.110Z,2.15
2022-08-01T10:08:48.677Z,1.90
2022-08-01T10:11:53.436Z,1.90
2022-08-01T10:15:00.658Z,2.00
2022-08-01T10:18:16.514Z,2.00
2022-08-01T10:21:47.657Z,1.88
2022-08-01T10:24:57.675Z,1.95
2022-08-01T10:28:03.739Z,1.60
2022-08-01T10:31:12.638Z,1.63
2022-08-01T10:34:20.895Z,1.48
2022-08-01T10:37:30.992Z,1.38
2022-08-01T10:40:34.800Z,1.58
2022-08-01T10:43:38.713Z,2.35
2022-08-01T10:46:55.070Z,1.95
2022-08-01T10:50:06.927Z,1.75
2022-08-01T10:53:15.231Z,2.05
2022-08-01T10:56:20.300Z,1.90
2022-08-01T10:59:49.631Z,1.60
2022-08-01T11:03:01.664Z,6.85
2022-08-01T11:06:08.367Z,4.65
2022-08-01T11:09:36.304Z,2.67
2022-08-01T11:12:41.499Z,1.90
2022-08-01T11:15:49.886Z,1.67
2022-08-01T11:18:54.340Z,2.00
2022-08-01T11:22:04.981Z,2.13
2022-08-01T11:25:08.467Z,2.08
2022-08-01T11:28:29.179Z,2.17
2022-08-01T11:31:37.623Z,1.92
2022-08-01T11:34:57.778Z,1.77
2022-08-01T11:38:25.346Z,3.65
2022-08-01T11:41:37.171Z,4.70
2022-08-01T11:44:51.348Z,6.47
2022-08-01T11:47:54.713Z,5.30
2022-08-01T11:51:02.115Z,4.35
2022-08-01T11:54:07.341Z,2.00
2022-08-01T11:57:12.901Z,1.60
2022-08-01T12:00:18.948Z,1.80
2022-08-01T12:03:33.551Z,1.80
2022-08-01T12:06:37.522Z,2.22
2022-08-01T12:09:47.764Z,3.67
2022-08-01T12:12:52.413Z,2.53
2022-08-01T12:15:57.293Z,4.00
2022-08-01T12:19:01.603Z,2.80
2022-08-01T12:22:13.232Z,4.88
2022-08-01T12:25:19.299Z,3.25
2022-08-01T12:28:23.940Z,2.95
2022-08-01T12:31:34.052Z,2.30
2022-08-01T12:34:37.312Z,1.88
2022-08-01T12:37:41.511Z,1.92
2022-08-01T12:40:52.874Z,1.95
2022-08-01T12:43:58.374Z,2.03
2022-08-01T12:47:03.023Z,3.50
2022-08-01T12:50:08.749Z,3.90
2022-08-01T12:53:19.328Z,2.55
2022-08-01T12:56:34.679Z,2.35
2022-08-01T12:59:37.959Z,2.47
2022-08-01T13:02:42.484Z,2.60
2022-08-01T13:05:47.517Z,2.03
2022-08-01T13:08:51.189Z,1.60
2022-08-01T13:12:04.417Z,2.47
2022-08-01T13:15:24.582Z,2.38
2022-08-01T13:18:29.085Z,1.63
2022-08-01T13:21:34.509Z,2.33
2022-08-01T13:25:12.132Z,2.00
2022-08-01T13:28:22.161Z,2.00
2022-08-01T13:31:34.844Z,1.77
2022-08-01T13:34:38.899Z,2.10
2022-08-01T13:37:44.270Z,2.60
2022-08-01T13:40:47.808Z,2.10
2022-08-01T13:43:58.087Z,1.95
2022-08-01T13:47:14.871Z,1.80
2022-08-01T13:50:20.387Z,1.73
2022-08-01T13:53:23.786Z,2.00
2022-08-01T13:56:28.558Z,1.70
2022-08-01T13:59:33.343Z,2.03
2022-08-01T14:02:36.665Z,1.50
2022-08-01T14:05:40.615Z,1.70
2022-08-01T14:08:45.945Z,2.00
2022-08-01T14:11:49.472Z,2.22
2022-08-01T14:14:54.159Z,2.13
2022-08-01T14:17:57.569Z,2.50
2022-08-01T14:21:05.631Z,2.08
2022-08-01T14:24:10.747Z,2.05
2022-08-01T14:27:14.076Z,1.70
2022-08-01T14:30:18.772Z,1.90
2022-08-01T14:33:21.999Z,2.00
2022-08-01T14:36:30.042Z,1.92
2022-08-01T14:39:34.680Z,1.80
2022-08-01T14:42:39.358Z,1.90
2022-08-01T14:45:44.114Z,2.13
2022-08-01T14:48:47.453Z,2.30
2022-08-01T14:51:50.896Z,2.40
2022-08-01T14:54:54.322Z,1.90
2022-08-01T14:57:57.682Z,2.03
2022-08-01T15:01:02.475Z,2.33
2022-08-01T15:04:05.976Z,2.65
2022-08-01T15:07:13.812Z,1.85
2022-08-01T15:10:17.319Z,1.83
2022-08-01T15:13:20.604Z,1.58
2022-08-01T15:16:25.521Z,1.80
2022-08-01T15:19:28.963Z,2.03
2022-08-01T15:22:32.757Z,2.17
2022-08-01T15:25:41.256Z,2.13
2022-08-01T15:28:45.548Z,1.80
2022-08-01T15:31:50.539Z,1.95
2022-08-01T15:34:54.054Z,2.45
2022-08-01T15:37:57.964Z,2.70
2022-08-01T15:41:01.322Z,2.30
2022-08-01T15:44:05.190Z,2.72
2022-08-01T15:47:11.305Z,1.83
2022-08-01T15:50:14.649Z,1.75
2022-08-01T15:53:18.005Z,4.53
2022-08-01T15:56:21.335Z,2.10
2022-08-01T15:59:24.852Z,2.10
2022-08-01T16:02:29.561Z,1.80
2022-08-01T16:05:32.819Z,1.98
2022-08-01T16:08:36.485Z,2.15
2022-08-01T16:11:43.027Z,2.97
2022-08-01T16:14:54.536Z,3.00
2022-08-01T16:18:01.925Z,2.75
2022-08-01T16:21:06.161Z,2.72
2022-08-01T16:24:09.761Z,2.22
2022-08-01T16:27:13.178Z,1.83
2022-08-01T16:30:16.474Z,1.92
2022-08-01T16:33:21.245Z,1.77
2022-08-01T16:36:44.490Z,2.10
2022-08-01T16:39:47.759Z,1.77
2022-08-01T16:42:51.135Z,2.25
2022-08-01T16:45:54.429Z,1.75
2022-08-01T16:48:59.294Z,1.90
2022-08-01T16:52:02.692Z,1.52
2022-08-01T16:55:06.853Z,2.88
2022-08-01T16:58:10.076Z,1.63
2022-08-01T17:01:59.351Z,7.47
2022-08-01T17:04:40.331Z,2.70
2022-08-01T17:07:43.692Z,2.20
2022-08-01T17:10:47.497Z,1.52
2022-08-01T17:13:50.886Z,1.88
2022-08-01T17:16:54.278Z,1.50
2022-08-01T17:19:59.126Z,1.55
2022-08-01T17:23:02.565Z,2.10
2022-08-01T17:26:06.000Z,1.45
2022-08-01T17:29:09.533Z,1.92
2022-08-01T17:32:14.339Z,1.30
2022-08-01T17:35:19.292Z,1.92
2022-08-01T17:38:22.573Z,1.10
2022-08-01T17:41:25.971Z,1.50
2022-08-01T17:44:29.271Z,1.67
2022-08-01T17:47:49.816Z,1.80
2022-08-01T17:50:55.296Z,1.67
2022-08-01T17:53:59.213Z,2.03
2022-08-01T17:57:02.748Z,1.75
2022-08-01T18:00:12.944Z,2.00
2022-08-01T18:03:21.524Z,2.30
2022-08-01T18:06:35.795Z,2.80
2022-08-01T18:09:43.999Z,2.38
2022-08-01T18:12:49.358Z,1.98
2022-08-01T18:15:53.045Z,2.03
2022-08-01T18:18:57.715Z,1.92
2022-08-01T18:22:02.536Z,1.90
2022-08-01T18:25:08.668Z,1.85
2022-08-01T18:28:22.583Z,1.92
2022-08-01T18:31:36.359Z,1.90
2022-08-01T18:34:39.688Z,1.65
2022-08-01T18:37:54.471Z,1.58
2022-08-01T18:40:58.945Z,2.10
2022-08-01T18:44:05.610Z,1.83
2022-08-01T18:47:11.865Z,2.13
2022-08-01T18:50:15.521Z,2.60
2022-08-01T18:53:20.904Z,2.97
2022-08-01T18:56:24.226Z,2.63
2022-08-01T18:59:27.607Z,2.30
2022-08-01T19:02:30.909Z,2.55
2022-08-01T19:05:34.960Z,2.53
2022-08-01T19:08:40.922Z,2.33
2022-08-01T19:11:44.351Z,2.35
2022-08-01T19:14:47.644Z,2.00
2022-08-01T19:17:50.913Z,1.85
2022-08-01T19:20:54.304Z,2.10
2022-08-01T19:24:16.250Z,2.10
2022-08-01T19:27:22.710Z,2.15
2022-08-01T19:30:26.437Z,2.13
2022-08-01T19:33:33.592Z,2.40
2022-08-01T19:36:39.264Z,2.67
2022-08-01T19:39:46.212Z,2.38
2022-08-01T19:42:52.484Z,2.58
2022-08-01T19:45:56.793Z,2.67
2022-08-01T19:49:00.180Z,2.20
2022-08-01T19:52:05.175Z,2.55
2022-08-01T19:55:10.663Z,2.42
2022-08-01T19:58:26.872Z,3.40
2022-08-01T20:01:32.287Z,2.55
2022-08-01T20:04:36.436Z,3.00
2022-08-01T20:07:39.835Z,2.20
2022-08-01T20:10:44.580Z,2.03
2022-08-01T20:13:49.610Z,1.60
2022-08-01T20:16:57.502Z,1.90
2022-08-01T20:20:00.948Z,2.30
2022-08-01T20:23:04.715Z,2.25
2022-08-01T20:26:11.004Z,2.67
2022-08-01T20:29:15.787Z,2.65
2022-08-01T20:32:21.326Z,2.50
2022-08-01T20:35:52.329Z,2.28
2022-08-01T20:38:49.636Z,2.38
2022-08-01T20:41:59.859Z,2.30
2022-08-01T20:45:05.286Z,2.20
2022-08-01T20:48:09.721Z,2.60
2022-08-01T20:51:16.150Z,2.70
2022-08-01T20:54:19.679Z,1.95
2022-08-01T20:57:25.529Z,2.17
2022-08-01T21:00:29.695Z,2.15
2022-08-01T21:03:40.936Z,2.40
2022-08-01T21:06:51.170Z,2.53
2022-08-01T21:10:07.990Z,2.47
2022-08-01T21:13:21.305Z,2.92
2022-08-01T21:16:30.035Z,3.15
2022-08-01T21:19:35.982Z,2.72
2022-08-01T21:22:47.659Z,2.75
2022-08-01T21:25:51.133Z,2.67
2022-08-01T21:28:58.286Z,2.95
2022-08-01T21:32:15.659Z,3.08
2022-08-01T21:35:22.091Z,2.60
2022-08-01T21:38:26.107Z,3.10
2022-08-01T21:42:01.297Z,2.97
2022-08-01T21:45:01.441Z,3.10
2022-08-01T21:48:07.024Z,3.65
2022-08-01T21:51:22.244Z,3.20
2022-08-01T21:54:40.337Z,3.10
2022-08-01T21:58:08.435Z,3.38
2022-08-01T22:01:19.374Z,2.70
2022-08-01T22:04:34.566Z,3.10
2022-08-01T22:07:46.108Z,2.83
2022-08-01T22:10:55.310Z,2.58
2022-08-01T22:14:03.092Z,2.70
2022-08-01T22:17:08.866Z,2.40
2022-08-01T22:20:12.878Z,2.40
2022-08-01T22:23:17.298Z,2.60
2022-08-01T22:26:28.570Z,2.28
2022-08-01T22:29:32.942Z,2.22
2022-08-01T22:32:39.908Z,2.10
2022-08-01T22:35:44.305Z,2.33
2022-08-01T22:38:47.658Z,2.22
2022-08-01T22:42:01.863Z,2.00
2022-08-01T22:45:08.384Z,2.20
2022-08-01T22:48:19.517Z,2.28
2022-08-01T22:51:33.236Z,2.45
2022-08-01T22:54:38.958Z,2.45
2022-08-01T22:57:50.256Z,2.20
2022-08-01T23:00:56.679Z,2.15
2022-08-01T23:04:02.553Z,2.05
2022-08-01T23:07:07.817Z,2.30
2022-08-01T23:10:11.499Z,2.00
2022-08-01T23:13:16.871Z,2.20
2022-08-01T23:16:20.703Z,1.70
2022-08-01T23:19:26.039Z,1.92
2022-08-01T23:22:32.278Z,2.08
2022-08-01T23:25:36.597Z,2.22
2022-08-01T23:28:41.087Z,2.30
2022-08-01T23:32:03.112Z,2.10
2022-08-01T23:35:10.185Z,2.10
2022-08-01T23:38:15.932Z,1.98
2022-08-01T23:41:19.352Z,2.10
2022-08-01T23:44:22.646Z,1.90
2022-08-01T23:47:26.031Z,1.85
2022-08-01T23:50:30.654Z,2.28
2022-08-01T23:53:38.390Z,2.00
2022-08-01T23:56:42.253Z,2.42
2022-08-01T23:59:52.888Z,1.83
